X  Sluiten METAR luchtvaart weer gegevens      EHWO Woensdrecht Air Base
Temperatuur
7°C Temperatuur
1°C Dauwpunt
66% Vochtigheid



Wind
14 KM/U
9 MPH
4 M/S
8 KTS



310°
NW
Huidig weer

Helder Helder
Luchtdruk 1009.82 (hPa) - 29.82 (inHg)
Zicht 6 (mijl) - 9.7 (km)
Vliegveld
Vliegveld code EHWO

Locatie : Woensdrecht Air Base
Afstand: 32 (km)

Metar:
EHWO 241825Z AUTO 31008KT 260V360 9999 NCD 07/01 Q1010 BLU

Tijd: 24-04-2024 20:25 CEST